createdAt,value
2022-08-30T00:01:39.660Z,18.80
2022-08-30T00:03:42.873Z,18.80
2022-08-30T00:05:44.938Z,18.70
2022-08-30T00:07:46.569Z,18.60
2022-08-30T00:09:48.270Z,18.60
2022-08-30T00:11:51.999Z,18.50
2022-08-30T00:13:54.962Z,18.40
2022-08-30T00:15:56.659Z,18.40
2022-08-30T00:17:58.593Z,18.50
2022-08-30T00:20:04.565Z,18.40
2022-08-30T00:22:07.151Z,18.30
2022-08-30T00:24:08.883Z,18.40
2022-08-30T00:26:10.680Z,18.40
2022-08-30T00:28:12.743Z,18.30
2022-08-30T00:30:15.503Z,18.20
2022-08-30T00:32:18.050Z,18.20
2022-08-30T00:34:19.634Z,18.30
2022-08-30T00:36:21.243Z,18.30
2022-08-30T00:38:24.219Z,18.40
2022-08-30T00:40:31.771Z,18.40
2022-08-30T00:42:33.768Z,18.40
2022-08-30T00:44:35.701Z,18.30
2022-08-30T00:46:37.418Z,18.40
2022-08-30T00:48:40.993Z,18.30
2022-08-30T00:50:44.380Z,18.30
2022-08-30T00:52:51.183Z,18.30
2022-08-30T00:54:53.316Z,18.20
2022-08-30T00:56:55.464Z,18.20
2022-08-30T00:58:58.092Z,18.10
2022-08-30T01:01:00.637Z,18.00
2022-08-30T01:03:02.708Z,18.00
2022-08-30T01:05:05.653Z,18.00
2022-08-30T01:07:08.234Z,18.00
2022-08-30T01:09:14.500Z,17.90
2022-08-30T01:11:18.505Z,17.80
2022-08-30T01:13:21.704Z,17.90
2022-08-30T01:15:24.321Z,17.90
2022-08-30T01:17:27.093Z,17.90
2022-08-30T01:19:34.521Z,17.90
2022-08-30T01:21:42.403Z,17.80
2022-08-30T01:23:45.043Z,17.80
2022-08-30T01:25:47.957Z,17.80
2022-08-30T01:27:52.029Z,17.60
2022-08-30T01:29:55.707Z,17.60
2022-08-30T01:31:57.397Z,17.70
2022-08-30T01:33:59.071Z,17.50
2022-08-30T01:36:02.454Z,17.50
2022-08-30T01:38:04.402Z,17.60
2022-08-30T01:40:07.315Z,17.60
2022-08-30T01:42:09.507Z,17.60
2022-08-30T01:44:12.134Z,17.50
2022-08-30T01:46:22.349Z,17.60
2022-08-30T01:48:28.260Z,17.50
2022-08-30T01:50:33.009Z,17.50
2022-08-30T01:52:34.793Z,17.50
2022-08-30T01:54:38.943Z,17.50
2022-08-30T01:56:40.592Z,17.40
2022-08-30T01:58:42.482Z,17.40
2022-08-30T02:00:44.093Z,17.40
2022-08-30T02:02:45.755Z,17.30
2022-08-30T02:04:47.384Z,17.20
2022-08-30T02:06:49.226Z,17.20
2022-08-30T02:08:50.913Z,17.20
2022-08-30T02:10:52.489Z,17.10
2022-08-30T02:12:54.193Z,17.20
2022-08-30T02:14:57.967Z,17.20
2022-08-30T02:16:59.629Z,17.30
2022-08-30T02:19:01.430Z,17.30
2022-08-30T02:21:08.324Z,17.30
2022-08-30T02:23:09.961Z,17.30
2022-08-30T02:25:20.594Z,17.30
2022-08-30T02:27:23.660Z,17.20
2022-08-30T02:29:27.467Z,17.20
2022-08-30T02:31:29.106Z,17.20
2022-08-30T02:33:31.730Z,17.20
2022-08-30T02:35:33.355Z,17.20
2022-08-30T02:37:34.956Z,17.10
2022-08-30T02:39:36.606Z,17.20
2022-08-30T02:41:39.019Z,17.20
2022-08-30T02:43:40.856Z,17.00
2022-08-30T02:45:42.626Z,16.90
2022-08-30T02:47:46.980Z,16.90
2022-08-30T02:49:48.854Z,16.80
2022-08-30T02:51:50.490Z,16.90
2022-08-30T02:53:52.092Z,16.80
2022-08-30T02:55:53.703Z,16.70
2022-08-30T02:58:06.772Z,16.70
2022-08-30T03:00:09.096Z,16.70
2022-08-30T03:02:11.641Z,16.70
2022-08-30T03:04:18.261Z,16.80
2022-08-30T03:08:45.800Z,16.80
2022-08-30T03:10:47.421Z,16.70
2022-08-30T03:12:49.043Z,16.70
2022-08-30T03:14:50.709Z,16.60
2022-08-30T03:16:52.440Z,16.60
2022-08-30T03:18:54.235Z,16.60
2022-08-30T03:20:55.870Z,16.70
2022-08-30T03:22:57.885Z,16.70
2022-08-30T03:25:01.344Z,16.60
2022-08-30T03:27:03.493Z,16.60
2022-08-30T03:29:05.123Z,16.60
2022-08-30T03:31:06.917Z,16.60
2022-08-30T03:33:08.663Z,16.60
2022-08-30T03:35:13.925Z,16.60
2022-08-30T03:37:23.248Z,16.60
2022-08-30T03:39:27.682Z,16.60
2022-08-30T03:41:36.048Z,16.50
2022-08-30T03:43:37.745Z,16.50
2022-08-30T03:45:39.688Z,16.40
2022-08-30T03:47:41.977Z,16.40
2022-08-30T03:49:43.729Z,16.40
2022-08-30T03:51:45.512Z,16.40
2022-08-30T03:53:47.161Z,16.40
2022-08-30T03:55:48.826Z,16.40
2022-08-30T03:57:50.771Z,16.30
2022-08-30T03:59:53.797Z,16.30
2022-08-30T04:01:55.410Z,16.40
2022-08-30T04:03:57.075Z,16.40
2022-08-30T04:05:58.672Z,16.20
2022-08-30T04:08:00.344Z,16.30
2022-08-30T04:10:02.171Z,16.30
2022-08-30T04:12:18.440Z,16.30
2022-08-30T04:14:24.870Z,16.20
2022-08-30T04:16:26.598Z,16.20
2022-08-30T04:18:28.275Z,16.20
2022-08-30T04:20:29.892Z,16.10
2022-08-30T04:22:31.595Z,16.10
2022-08-30T04:24:34.470Z,16.10
2022-08-30T04:26:36.198Z,16.10
2022-08-30T04:28:37.820Z,16.20
2022-08-30T04:30:40.426Z,16.20
2022-08-30T04:32:42.499Z,16.10
2022-08-30T04:34:49.569Z,16.10
2022-08-30T04:37:28.756Z,16.10
2022-08-30T04:42:12.711Z,16.10
2022-08-30T04:44:43.288Z,16.10
2022-08-30T04:49:25.639Z,16.00
2022-08-30T04:51:38.879Z,16.00
2022-08-30T04:53:49.099Z,16.00
2022-08-30T04:55:53.085Z,16.00
2022-08-30T05:00:17.534Z,16.00
2022-08-30T05:02:19.552Z,16.10
2022-08-30T05:04:21.204Z,16.10
2022-08-30T05:06:23.677Z,16.20
2022-08-30T05:08:25.605Z,16.20
2022-08-30T05:10:30.297Z,16.10
2022-08-30T05:12:32.215Z,16.00
2022-08-30T05:14:33.998Z,16.00
2022-08-30T05:16:35.789Z,16.00
2022-08-30T05:18:37.549Z,16.10
2022-08-30T05:20:39.331Z,16.10
2022-08-30T05:22:49.859Z,16.10
2022-08-30T05:24:54.910Z,16.10
2022-08-30T05:26:56.506Z,16.20
2022-08-30T05:28:58.831Z,16.30
2022-08-30T05:31:00.764Z,16.30
2022-08-30T05:33:02.535Z,16.30
2022-08-30T05:35:08.019Z,16.40
2022-08-30T05:37:09.644Z,16.50
2022-08-30T05:39:24.672Z,16.60
2022-08-30T05:44:53.357Z,16.70
2022-08-30T05:46:54.995Z,16.90
2022-08-30T05:48:57.230Z,16.90
2022-08-30T05:51:06.233Z,16.90
2022-08-30T05:53:07.869Z,16.90
2022-08-30T05:55:10.288Z,17.10
2022-08-30T05:57:12.067Z,17.10
2022-08-30T05:59:14.498Z,17.10
2022-08-30T06:01:23.937Z,17.10
2022-08-30T06:03:26.155Z,17.20
2022-08-30T06:05:28.883Z,17.30
2022-08-30T06:07:35.179Z,17.20
2022-08-30T06:09:36.890Z,17.20
2022-08-30T06:11:38.565Z,17.20
2022-08-30T06:13:41.327Z,17.20
2022-08-30T06:15:45.137Z,17.30
2022-08-30T06:17:47.616Z,17.30
2022-08-30T06:19:49.415Z,17.20
2022-08-30T06:21:51.769Z,17.20
2022-08-30T06:23:54.182Z,17.30
2022-08-30T06:25:55.981Z,17.30
2022-08-30T06:27:57.633Z,17.40
2022-08-30T06:29:59.426Z,17.50
2022-08-30T06:32:01.105Z,17.40
2022-08-30T06:34:03.084Z,17.50
2022-08-30T06:36:06.160Z,17.50
2022-08-30T06:38:07.944Z,17.60
2022-08-30T06:40:10.241Z,17.70
2022-08-30T06:42:11.941Z,17.70
2022-08-30T06:44:13.595Z,17.70
2022-08-30T06:46:17.027Z,17.70
2022-08-30T06:48:18.843Z,17.80
2022-08-30T06:50:20.907Z,17.80
2022-08-30T06:52:23.123Z,17.90
2022-08-30T06:54:24.889Z,17.90
2022-08-30T06:56:27.585Z,17.90
2022-08-30T06:58:30.648Z,17.90
2022-08-30T07:00:32.288Z,18.00
2022-08-30T07:02:34.127Z,18.00
2022-08-30T07:04:35.868Z,18.10
2022-08-30T07:06:37.556Z,18.10
2022-08-30T07:08:39.804Z,18.20
2022-08-30T07:10:41.520Z,18.30
2022-08-30T07:12:43.148Z,18.40
2022-08-30T07:14:44.859Z,18.40
2022-08-30T07:16:46.976Z,18.60
2022-08-30T07:18:55.014Z,18.60
2022-08-30T07:20:56.737Z,18.70
2022-08-30T07:22:58.384Z,18.80
2022-08-30T07:25:00.113Z,18.90
2022-08-30T07:27:01.852Z,19.00
2022-08-30T07:29:03.982Z,19.00
2022-08-30T07:31:06.019Z,19.10
2022-08-30T07:33:07.894Z,19.10
2022-08-30T07:35:10.086Z,19.20
2022-08-30T07:37:18.062Z,19.30
2022-08-30T07:39:20.010Z,19.40
2022-08-30T07:41:24.238Z,19.50
2022-08-30T07:43:25.838Z,19.70
2022-08-30T07:45:27.476Z,19.80
2022-08-30T07:47:29.104Z,20.00
2022-08-30T07:49:30.784Z,20.00
2022-08-30T07:51:32.900Z,20.20
2022-08-30T07:53:34.723Z,20.30
2022-08-30T07:55:37.384Z,20.40
2022-08-30T07:57:39.058Z,20.50
2022-08-30T07:59:40.793Z,20.60
2022-08-30T08:01:42.716Z,20.70
2022-08-30T08:03:44.703Z,20.60
2022-08-30T08:05:47.292Z,20.70
2022-08-30T08:07:48.928Z,20.70
2022-08-30T08:09:50.642Z,20.80
2022-08-30T08:11:52.882Z,21.00
2022-08-30T08:13:54.948Z,21.00
2022-08-30T08:15:56.625Z,21.00
2022-08-30T08:17:58.353Z,21.10
2022-08-30T08:20:00.006Z,21.10
2022-08-30T08:22:20.621Z,21.20
2022-08-30T08:24:29.420Z,21.30
2022-08-30T08:26:31.114Z,21.40
2022-08-30T08:28:32.828Z,21.50
2022-08-30T08:30:36.000Z,21.60
2022-08-30T08:32:37.619Z,21.70
2022-08-30T08:34:39.814Z,21.70
2022-08-30T08:36:41.791Z,21.80
2022-08-30T08:38:43.528Z,21.80
2022-08-30T08:40:54.432Z,22.00
2022-08-30T08:43:05.193Z,22.00
2022-08-30T08:45:11.787Z,22.10
2022-08-30T08:47:26.175Z,22.10
2022-08-30T08:49:28.420Z,22.40
2022-08-30T08:51:53.574Z,22.70
2022-08-30T08:53:59.232Z,22.80
2022-08-30T08:56:01.610Z,22.90
2022-08-30T08:58:03.337Z,22.90
2022-08-30T09:00:10.156Z,22.90
2022-08-30T09:02:34.143Z,22.90
2022-08-30T09:04:37.869Z,23.30
2022-08-30T09:06:45.693Z,23.30
2022-08-30T09:08:47.365Z,23.30
2022-08-30T09:10:53.846Z,23.60
2022-08-30T09:12:59.777Z,23.70
2022-08-30T09:15:05.583Z,23.90
2022-08-30T09:17:07.372Z,24.00
2022-08-30T09:19:09.020Z,24.00
2022-08-30T09:21:11.895Z,24.00
2022-08-30T09:23:13.572Z,24.20
2022-08-30T09:25:24.244Z,24.40
2022-08-30T09:27:26.222Z,24.40
2022-08-30T09:29:28.643Z,24.50
2022-08-30T09:31:31.902Z,24.70
2022-08-30T09:33:34.459Z,24.90
2022-08-30T09:35:43.558Z,24.90
2022-08-30T09:37:47.545Z,25.20
2022-08-30T09:39:49.338Z,25.30
2022-08-30T09:41:51.187Z,25.50
2022-08-30T09:44:07.479Z,25.40
2022-08-30T09:46:10.291Z,25.30
2022-08-30T09:48:22.744Z,25.50
2022-08-30T09:50:25.990Z,25.40
2022-08-30T09:52:30.372Z,25.60
2022-08-30T09:54:36.745Z,26.00
2022-08-30T09:56:47.271Z,26.10
2022-08-30T09:58:55.721Z,26.30
2022-08-30T10:00:57.445Z,26.60
2022-08-30T10:03:40.574Z,26.70
2022-08-30T10:05:49.762Z,26.80
2022-08-30T10:08:12.669Z,26.60
2022-08-30T10:10:23.038Z,26.70
2022-08-30T10:12:28.627Z,26.80
2022-08-30T10:14:33.193Z,27.00
2022-08-30T10:16:41.962Z,27.00
2022-08-30T10:18:49.881Z,27.20
2022-08-30T10:20:54.681Z,27.30
2022-08-30T10:22:58.986Z,27.30
2022-08-30T10:25:23.941Z,27.40
2022-08-30T10:27:31.664Z,27.60
2022-08-30T10:29:42.509Z,27.80
2022-08-30T10:31:52.059Z,28.10
2022-08-30T10:33:56.883Z,28.20
2022-08-30T10:36:00.169Z,28.30
2022-08-30T10:38:30.954Z,28.60
2022-08-30T10:40:53.110Z,29.00
2022-08-30T10:42:56.462Z,29.00
2022-08-30T10:45:03.698Z,29.10
2022-08-30T10:47:23.821Z,29.30
2022-08-30T10:49:26.601Z,29.60
2022-08-30T10:51:42.065Z,29.70
2022-08-30T10:53:46.492Z,29.80
2022-08-30T10:55:50.929Z,30.00
2022-08-30T10:57:52.766Z,30.10
2022-08-30T11:00:06.559Z,30.10
2022-08-30T11:02:23.285Z,30.40
2022-08-30T11:04:24.963Z,30.50
2022-08-30T11:06:35.708Z,30.80
2022-08-30T11:08:43.532Z,30.70
2022-08-30T11:10:49.785Z,31.00
2022-08-30T11:13:00.869Z,31.50
2022-08-30T11:15:17.917Z,31.50
2022-08-30T11:17:23.137Z,32.30
2022-08-30T11:19:43.584Z,33.20
2022-08-30T11:21:46.010Z,33.10
2022-08-30T11:24:02.059Z,33.30
2022-08-30T11:26:08.177Z,34.00
2022-08-30T11:28:33.852Z,33.90
2022-08-30T11:30:38.274Z,34.30
2022-08-30T11:32:59.481Z,34.30
2022-08-30T11:35:01.285Z,34.40
2022-08-30T11:37:04.400Z,34.80
2022-08-30T11:39:13.635Z,35.10
2022-08-30T11:41:30.054Z,34.50
2022-08-30T11:43:35.047Z,35.10
2022-08-30T11:45:46.417Z,35.00
2022-08-30T11:47:56.094Z,35.70
2022-08-30T11:50:17.272Z,35.20
2022-08-30T11:52:56.305Z,34.90
2022-08-30T11:55:16.414Z,35.70
2022-08-30T11:57:27.758Z,36.00
2022-08-30T11:59:33.702Z,35.50
2022-08-30T12:01:52.053Z,35.20
2022-08-30T12:04:03.390Z,34.00
2022-08-30T12:06:06.636Z,32.90
2022-08-30T12:08:28.006Z,31.80
2022-08-30T12:10:39.727Z,31.20
2022-08-30T12:12:47.622Z,30.60
2022-08-30T12:14:54.923Z,30.10
2022-08-30T12:17:15.458Z,30.10
2022-08-30T12:19:20.629Z,30.40
2022-08-30T12:21:22.762Z,30.70
2022-08-30T12:23:44.645Z,30.60
2022-08-30T12:25:47.137Z,30.60
2022-08-30T12:27:48.856Z,31.20
2022-08-30T12:29:54.078Z,31.60
2022-08-30T12:31:58.092Z,32.00
2022-08-30T12:34:01.087Z,32.20
2022-08-30T12:36:02.941Z,32.90
2022-08-30T12:38:06.155Z,33.10
2022-08-30T12:40:19.763Z,31.80
2022-08-30T12:42:22.294Z,31.10
2022-08-30T12:44:27.962Z,30.80
2022-08-30T12:46:30.194Z,30.80
2022-08-30T12:48:39.143Z,30.80
2022-08-30T12:50:51.556Z,30.70
2022-08-30T12:53:01.189Z,30.30
2022-08-30T12:55:19.026Z,31.30
2022-08-30T12:57:44.152Z,32.50
2022-08-30T12:59:54.153Z,32.40
2022-08-30T13:02:06.270Z,32.20
2022-08-30T13:04:23.404Z,31.70
2022-08-30T13:06:39.806Z,30.80
2022-08-30T13:08:44.494Z,30.70
2022-08-30T13:10:52.646Z,30.60
2022-08-30T13:13:00.179Z,30.90
2022-08-30T13:15:11.022Z,31.10
2022-08-30T13:17:18.764Z,32.70
2022-08-30T13:19:35.049Z,33.60
2022-08-30T13:21:47.416Z,32.90
2022-08-30T13:23:50.178Z,32.90
2022-08-30T13:25:51.909Z,33.90
2022-08-30T13:27:53.838Z,34.20
2022-08-30T13:29:55.623Z,33.70
2022-08-30T13:31:57.519Z,34.20
2022-08-30T13:33:59.643Z,34.40
2022-08-30T13:36:01.340Z,34.20
2022-08-30T13:38:04.068Z,34.40
2022-08-30T13:40:06.003Z,34.90
2022-08-30T13:44:32.751Z,34.20
2022-08-30T13:46:36.461Z,34.00
2022-08-30T13:48:38.306Z,33.70
2022-08-30T13:50:40.026Z,33.50
2022-08-30T13:52:41.829Z,34.00
2022-08-30T13:54:43.479Z,34.20
2022-08-30T13:56:45.358Z,34.20
2022-08-30T13:58:47.770Z,34.30
2022-08-30T14:00:49.597Z,34.50
2022-08-30T14:02:57.476Z,34.40
2022-08-30T14:05:03.243Z,33.90
2022-08-30T14:07:16.754Z,33.60
2022-08-30T14:09:21.943Z,33.30
2022-08-30T14:11:23.668Z,32.70
2022-08-30T14:13:28.824Z,32.30
2022-08-30T14:15:31.499Z,31.90
2022-08-30T14:17:35.466Z,31.70
2022-08-30T14:19:37.239Z,32.00
2022-08-30T14:21:38.928Z,32.10
2022-08-30T14:23:40.581Z,31.80
2022-08-30T14:25:43.459Z,31.50
2022-08-30T14:27:45.096Z,31.30
2022-08-30T14:29:47.038Z,31.40
2022-08-30T14:31:49.100Z,31.40
2022-08-30T14:33:50.999Z,31.20
2022-08-30T14:35:52.634Z,31.30
2022-08-30T14:37:55.149Z,31.40
2022-08-30T14:39:56.869Z,31.30
2022-08-30T14:41:58.646Z,31.20
2022-08-30T14:44:06.117Z,31.10
2022-08-30T14:46:08.801Z,31.60
2022-08-30T14:48:11.399Z,32.60
2022-08-30T14:50:15.153Z,34.60
2022-08-30T14:52:24.463Z,35.80
2022-08-30T14:54:27.478Z,36.80
2022-08-30T14:56:29.139Z,37.20
2022-08-30T14:58:30.967Z,36.90
2022-08-30T15:00:32.661Z,37.90
2022-08-30T15:02:34.294Z,37.70
2022-08-30T15:04:36.143Z,37.90
2022-08-30T15:06:38.733Z,37.80
2022-08-30T15:08:41.474Z,37.90
2022-08-30T15:10:43.203Z,38.30
2022-08-30T15:12:46.460Z,38.70
2022-08-30T15:14:48.118Z,40.20
2022-08-30T15:16:49.804Z,39.70
2022-08-30T15:18:52.997Z,40.80
2022-08-30T15:20:55.316Z,40.40
2022-08-30T15:22:57.807Z,40.60
2022-08-30T15:25:01.560Z,40.40
2022-08-30T15:27:03.257Z,39.10
2022-08-30T15:29:04.905Z,38.50
2022-08-30T15:31:09.253Z,36.50
2022-08-30T15:33:11.296Z,36.40
2022-08-30T15:35:12.949Z,35.90
2022-08-30T15:37:22.193Z,33.90
2022-08-30T15:39:24.265Z,32.80
2022-08-30T15:41:27.343Z,31.70
2022-08-30T15:43:30.360Z,32.70
2022-08-30T15:45:33.086Z,32.00
2022-08-30T15:47:34.823Z,32.70
2022-08-30T15:49:36.709Z,32.30
2022-08-30T15:51:41.529Z,32.00
2022-08-30T15:53:44.750Z,31.90
2022-08-30T15:55:46.409Z,34.40
2022-08-30T15:57:48.064Z,35.90
2022-08-30T15:59:49.960Z,36.70
2022-08-30T16:01:52.241Z,37.30
2022-08-30T16:03:53.974Z,37.10
2022-08-30T16:05:55.587Z,36.50
2022-08-30T16:07:57.227Z,35.30
2022-08-30T16:09:58.907Z,33.60
2022-08-30T16:12:01.455Z,33.70
2022-08-30T16:14:03.571Z,32.30
2022-08-30T16:16:06.281Z,31.10
2022-08-30T16:18:08.012Z,30.50
2022-08-30T16:20:11.915Z,30.90
2022-08-30T16:22:13.642Z,30.70
2022-08-30T16:24:18.787Z,29.90
2022-08-30T16:26:24.946Z,29.50
2022-08-30T16:28:27.392Z,29.00
2022-08-30T16:30:29.679Z,28.80
2022-08-30T16:32:31.656Z,28.70
2022-08-30T16:34:33.481Z,28.70
2022-08-30T16:36:35.962Z,28.90
2022-08-30T16:38:38.192Z,29.20
2022-08-30T16:40:41.527Z,29.50
2022-08-30T16:42:45.830Z,29.50
2022-08-30T16:44:47.471Z,29.50
2022-08-30T16:46:53.346Z,29.30
2022-08-30T16:49:01.373Z,29.20
2022-08-30T16:51:08.185Z,28.90
2022-08-30T16:53:10.807Z,28.50
2022-08-30T16:55:12.749Z,28.30
2022-08-30T16:57:14.630Z,28.30
2022-08-30T16:59:16.708Z,28.40
2022-08-30T17:01:22.302Z,28.50
2022-08-30T17:03:24.212Z,28.40
2022-08-30T17:05:26.544Z,28.10
2022-08-30T17:07:28.172Z,28.10
2022-08-30T17:09:31.111Z,27.90
2022-08-30T17:11:33.819Z,27.90
2022-08-30T17:13:35.483Z,27.90
2022-08-30T17:15:37.467Z,27.80
2022-08-30T17:17:43.353Z,27.70
2022-08-30T17:19:45.046Z,27.80
2022-08-30T17:21:47.458Z,27.80
2022-08-30T17:23:49.305Z,27.80
2022-08-30T17:25:51.058Z,27.60
2022-08-30T17:27:52.844Z,27.50
2022-08-30T17:29:54.863Z,27.50
2022-08-30T17:31:57.123Z,27.40
2022-08-30T17:34:03.318Z,27.20
2022-08-30T17:36:06.841Z,27.10
2022-08-30T17:38:08.643Z,26.90
2022-08-30T17:40:14.507Z,26.70
2022-08-30T17:42:16.543Z,26.90
2022-08-30T17:44:18.852Z,26.80
2022-08-30T17:46:20.958Z,26.70
2022-08-30T17:48:22.728Z,26.50
2022-08-30T17:50:24.663Z,26.50
2022-08-30T17:52:29.817Z,26.20
2022-08-30T17:54:32.119Z,26.10
2022-08-30T17:56:35.522Z,26.00
2022-08-30T17:58:37.705Z,25.70
2022-08-30T18:00:39.339Z,25.50
2022-08-30T18:02:42.670Z,25.30
2022-08-30T18:04:44.376Z,25.10
2022-08-30T18:06:46.612Z,25.00
2022-08-30T18:08:48.290Z,24.90
2022-08-30T18:10:49.932Z,24.80
2022-08-30T18:12:51.630Z,24.80
2022-08-30T18:14:54.752Z,24.70
2022-08-30T18:16:56.447Z,24.60
2022-08-30T18:18:58.092Z,24.50
2022-08-30T18:20:59.937Z,24.40
2022-08-30T18:23:01.689Z,24.30
2022-08-30T18:25:03.732Z,24.20
2022-08-30T18:27:05.601Z,24.20
2022-08-30T18:29:07.692Z,24.10
2022-08-30T18:31:10.268Z,24.10
2022-08-30T18:33:11.917Z,24.10
2022-08-30T18:35:13.973Z,24.00
2022-08-30T18:37:16.901Z,23.90
2022-08-30T18:39:19.150Z,23.90
2022-08-30T18:41:22.332Z,23.90
2022-08-30T18:43:24.563Z,24.00
2022-08-30T18:45:26.530Z,24.00
2022-08-30T18:47:28.351Z,23.90
2022-08-30T18:49:32.524Z,23.90
2022-08-30T18:51:34.400Z,24.00
2022-08-30T18:53:36.857Z,24.00
2022-08-30T18:55:38.543Z,24.00
2022-08-30T18:57:40.242Z,23.90
2022-08-30T18:59:42.431Z,23.90
2022-08-30T19:01:46.677Z,23.90
2022-08-30T19:03:50.553Z,23.80
2022-08-30T19:05:54.307Z,23.70
2022-08-30T19:07:55.949Z,23.80
2022-08-30T19:09:58.888Z,23.80
2022-08-30T19:12:00.837Z,23.90
2022-08-30T19:14:03.076Z,23.80
2022-08-30T19:16:05.697Z,23.80
2022-08-30T19:18:16.668Z,23.80
2022-08-30T19:20:20.832Z,23.70
2022-08-30T19:22:24.034Z,23.70
2022-08-30T19:24:29.139Z,23.60
2022-08-30T19:26:31.386Z,23.50
2022-08-30T19:28:34.654Z,23.40
2022-08-30T19:30:36.478Z,23.30
2022-08-30T19:32:38.176Z,23.30
2022-08-30T19:34:39.872Z,23.20
2022-08-30T19:36:41.662Z,23.10
2022-08-30T19:38:46.338Z,23.00
2022-08-30T19:43:09.733Z,22.90
2022-08-30T19:45:13.853Z,22.90
2022-08-30T19:47:15.521Z,22.80
2022-08-30T19:49:17.382Z,22.80
2022-08-30T19:51:20.618Z,22.80
2022-08-30T19:53:24.540Z,22.80
2022-08-30T19:55:28.128Z,22.70
2022-08-30T19:57:30.497Z,22.70
2022-08-30T19:59:32.485Z,22.70
2022-08-30T20:01:34.904Z,22.60
2022-08-30T20:03:36.921Z,22.60
2022-08-30T20:05:38.636Z,22.60
2022-08-30T20:07:40.344Z,22.60
2022-08-30T20:09:44.094Z,22.60
2022-08-30T20:11:45.995Z,22.50
2022-08-30T20:13:54.361Z,22.50
2022-08-30T20:15:56.718Z,22.50
2022-08-30T20:18:14.378Z,22.50
2022-08-30T20:20:20.521Z,22.50
2022-08-30T20:22:26.727Z,22.40
2022-08-30T20:24:28.568Z,22.40
2022-08-30T20:26:33.844Z,22.30
2022-08-30T20:28:37.204Z,22.30
2022-08-30T20:30:38.969Z,22.30
2022-08-30T20:32:44.830Z,22.30
2022-08-30T20:34:46.514Z,22.20
2022-08-30T20:36:48.159Z,22.30
2022-08-30T20:38:50.094Z,22.20
2022-08-30T20:40:54.284Z,22.20
2022-08-30T20:42:55.950Z,22.10
2022-08-30T20:44:59.063Z,22.10
2022-08-30T20:47:00.847Z,22.10
2022-08-30T20:49:03.860Z,22.10
2022-08-30T20:51:09.560Z,22.00
2022-08-30T20:53:11.388Z,22.10
2022-08-30T20:55:13.615Z,22.10
2022-08-30T20:57:15.331Z,22.10
2022-08-30T20:59:17.453Z,22.10
2022-08-30T21:01:19.348Z,22.00
2022-08-30T21:03:26.112Z,22.00
2022-08-30T21:05:29.502Z,22.00
2022-08-30T21:07:31.540Z,22.00
2022-08-30T21:09:33.296Z,21.90
2022-08-30T21:11:36.629Z,21.90
2022-08-30T21:13:38.740Z,21.90
2022-08-30T21:15:42.318Z,21.90
2022-08-30T21:17:46.332Z,21.90
2022-08-30T21:19:48.113Z,21.80
2022-08-30T21:21:49.764Z,21.80
2022-08-30T21:23:54.623Z,21.80
2022-08-30T21:25:56.325Z,21.80
2022-08-30T21:27:58.438Z,21.80
2022-08-30T21:30:00.079Z,21.80
2022-08-30T21:32:01.792Z,21.80
2022-08-30T21:34:03.923Z,21.70
2022-08-30T21:36:24.793Z,21.70
2022-08-30T21:38:26.510Z,21.70
2022-08-30T21:40:28.220Z,21.60
2022-08-30T21:42:29.985Z,21.60
2022-08-30T21:44:31.606Z,21.50
2022-08-30T21:46:34.094Z,21.50
2022-08-30T21:48:37.287Z,21.50
2022-08-30T21:50:39.950Z,21.50
2022-08-30T21:52:41.701Z,21.50
2022-08-30T21:54:43.339Z,21.50
2022-08-30T21:56:46.296Z,21.50
2022-08-30T21:58:48.053Z,21.40
2022-08-30T22:00:49.850Z,21.50
2022-08-30T22:02:52.796Z,21.50
2022-08-30T22:04:55.981Z,21.40
2022-08-30T22:06:57.734Z,21.40
2022-08-30T22:09:01.155Z,21.50
2022-08-30T22:11:05.720Z,21.40
2022-08-30T22:13:10.083Z,21.40
2022-08-30T22:15:12.611Z,21.40
2022-08-30T22:17:14.290Z,21.40
2022-08-30T22:19:19.789Z,21.50
2022-08-30T22:21:25.696Z,21.50
2022-08-30T22:23:27.656Z,21.50
2022-08-30T22:25:30.033Z,21.50
2022-08-30T22:27:31.792Z,21.50
2022-08-30T22:29:33.501Z,21.50
2022-08-30T22:31:36.808Z,21.50
2022-08-30T22:33:44.546Z,21.50
2022-08-30T22:35:47.055Z,21.40
2022-08-30T22:37:53.361Z,21.40
2022-08-30T22:39:55.470Z,21.40
2022-08-30T22:41:57.128Z,21.40
2022-08-30T22:43:58.903Z,21.30
2022-08-30T22:46:00.839Z,21.40
2022-08-30T22:48:02.702Z,21.30
2022-08-30T22:50:04.591Z,21.30
2022-08-30T22:52:06.663Z,21.30
2022-08-30T22:54:08.636Z,21.30
2022-08-30T22:56:22.953Z,21.20
2022-08-30T22:58:25.056Z,21.20
2022-08-30T23:00:26.770Z,21.20
2022-08-30T23:02:28.474Z,21.20
2022-08-30T23:04:30.191Z,21.20
2022-08-30T23:06:32.490Z,21.20
2022-08-30T23:08:34.128Z,21.20
2022-08-30T23:10:36.033Z,21.20
2022-08-30T23:12:38.070Z,21.20
2022-08-30T23:14:39.739Z,21.20
2022-08-30T23:16:41.411Z,21.30
2022-08-30T23:18:43.629Z,21.30
2022-08-30T23:20:45.650Z,21.20
2022-08-30T23:22:47.721Z,21.20
2022-08-30T23:25:12.640Z,21.20
2022-08-30T23:27:36.201Z,21.20
2022-08-30T23:29:56.837Z,21.20
2022-08-30T23:32:17.684Z,21.20
2022-08-30T23:34:37.797Z,21.20
2022-08-30T23:36:57.882Z,21.10
2022-08-30T23:39:18.004Z,21.10
2022-08-30T23:41:38.192Z,21.10
2022-08-30T23:43:58.353Z,21.10
2022-08-30T23:46:19.597Z,21.10
2022-08-30T23:48:40.247Z,21.10
2022-08-30T23:51:10.797Z,21.10
2022-08-30T23:53:43.796Z,21.10
2022-08-30T23:56:04.152Z,21.10
2022-08-30T23:58:24.215Z,21.10
